sensor_id;sensor_type;location;lat;lon;timestamp;temperature;humidity
37868;DHT22;24011;48.880;9.190;2022-12-15T00:00:57;24.30;36.40
37868;DHT22;24011;48.880;9.190;2022-12-15T00:04:07;24.30;36.30
37868;DHT22;24011;48.880;9.190;2022-12-15T00:07:31;24.30;36.30
37868;DHT22;24011;48.880;9.190;2022-12-15T00:10:49;24.30;36.40
37868;DHT22;24011;48.880;9.190;2022-12-15T00:14:13;24.30;36.30
37868;DHT22;24011;48.880;9.190;2022-12-15T00:17:25;24.30;36.40
37868;DHT22;24011;48.880;9.190;2022-12-15T00:20:49;24.30;37.00
37868;DHT22;24011;48.880;9.190;2022-12-15T00:24:01;24.30;36.30
37868;DHT22;24011;48.880;9.190;2022-12-15T00:27:25;24.30;36.30
37868;DHT22;24011;48.880;9.190;2022-12-15T00:30:46;24.30;36.30
37868;DHT22;24011;48.880;9.190;2022-12-15T00:34:16;24.30;36.30
37868;DHT22;24011;48.880;9.190;2022-12-15T00:37:37;24.30;36.20
37868;DHT22;24011;48.880;9.190;2022-12-15T00:41:10;24.30;36.30
37868;DHT22;24011;48.880;9.190;2022-12-15T00:44:43;24.30;36.30
37868;DHT22;24011;48.880;9.190;2022-12-15T00:48:01;24.30;36.30
37868;DHT22;24011;48.880;9.190;2022-12-15T00:51:13;24.30;36.30
37868;DHT22;24011;48.880;9.190;2022-12-15T00:54:46;24.30;36.30
37868;DHT22;24011;48.880;9.190;2022-12-15T00:58:07;24.30;36.30
37868;DHT22;24011;48.880;9.190;2022-12-15T01:01:40;24.30;36.30
37868;DHT22;24011;48.880;9.190;2022-12-15T01:05:01;24.30;36.30
37868;DHT22;24011;48.880;9.190;2022-12-15T01:08:37;24.30;36.20
37868;DHT22;24011;48.880;9.190;2022-12-15T01:11:58;24.30;36.30
37868;DHT22;24011;48.880;9.190;2022-12-15T01:15:31;24.30;36.30
37868;DHT22;24011;48.880;9.190;2022-12-15T01:19:01;24.30;36.30
37868;DHT22;24011;48.880;9.190;2022-12-15T01:22:38;24.30;36.30
37868;DHT22;24011;48.880;9.190;2022-12-15T01:26:02;24.30;36.30
37868;DHT22;24011;48.880;9.190;2022-12-15T01:29:38;24.30;36.30
37868;DHT22;24011;48.880;9.190;2022-12-15T01:33:08;24.30;36.30
37868;DHT22;24011;48.880;9.190;2022-12-15T01:36:26;24.30;36.20
37868;DHT22;24011;48.880;9.190;2022-12-15T01:39:32;24.30;36.20
37868;DHT22;24011;48.880;9.190;2022-12-15T01:42:44;24.30;36.20
37868;DHT22;24011;48.880;9.190;2022-12-15T01:45:59;24.30;36.20
37868;DHT22;24011;48.880;9.190;2022-12-15T01:49:07;24.30;36.20
37868;DHT22;24011;48.880;9.190;2022-12-15T01:52:13;24.30;36.20
37868;DHT22;24011;48.880;9.190;2022-12-15T01:55:20;24.20;36.30
37868;DHT22;24011;48.880;9.190;2022-12-15T01:58:32;24.30;36.20
37868;DHT22;24011;48.880;9.190;2022-12-15T02:01:38;24.30;36.20
37868;DHT22;24011;48.880;9.190;2022-12-15T02:04:50;24.30;36.20
37868;DHT22;24011;48.880;9.190;2022-12-15T02:08:01;24.30;36.20
37868;DHT22;24011;48.880;9.190;2022-12-15T02:11:33;24.30;36.20
37868;DHT22;24011;48.880;9.190;2022-12-15T02:15:15;24.30;36.20
37868;DHT22;24011;48.880;9.190;2022-12-15T02:18:57;24.30;36.20
37868;DHT22;24011;48.880;9.190;2022-12-15T02:22:32;24.30;36.20
37868;DHT22;24011;48.880;9.190;2022-12-15T02:33:43;24.30;36.20
37868;DHT22;24011;48.880;9.190;2022-12-15T02:37:06;24.30;36.20
37868;DHT22;24011;48.880;9.190;2022-12-15T02:40:26;24.30;36.10
37868;DHT22;24011;48.880;9.190;2022-12-15T02:43:55;24.30;36.20
37868;DHT22;24011;48.880;9.190;2022-12-15T02:47:26;24.30;36.10
37868;DHT22;24011;48.880;9.190;2022-12-15T02:51:15;24.30;36.20
37868;DHT22;24011;48.880;9.190;2022-12-15T02:54:56;24.30;36.10
37868;DHT22;24011;48.880;9.190;2022-12-15T02:58:52;24.30;36.20
37868;DHT22;24011;48.880;9.190;2022-12-15T03:02:44;24.30;36.10
37868;DHT22;24011;48.880;9.190;2022-12-15T03:14:44;24.30;36.10
37868;DHT22;24011;48.880;9.190;2022-12-15T03:18:26;24.30;36.10
37868;DHT22;24011;48.880;9.190;2022-12-15T03:22:08;24.30;36.10
37868;DHT22;24011;48.880;9.190;2022-12-15T03:25:44;24.30;36.10
37868;DHT22;24011;48.880;9.190;2022-12-15T03:33:32;24.30;36.10
37868;DHT22;24011;48.880;9.190;2022-12-15T03:37:20;24.30;36.10
37868;DHT22;24011;48.880;9.190;2022-12-15T03:40:56;24.30;36.10
37868;DHT22;24011;48.880;9.190;2022-12-15T03:44:56;24.30;36.10
37868;DHT22;24011;48.880;9.190;2022-12-15T03:48:32;24.40;36.10
37868;DHT22;24011;48.880;9.190;2022-12-15T03:52:20;24.30;36.10
37868;DHT22;24011;48.880;9.190;2022-12-15T03:55:50;24.30;36.00
37868;DHT22;24011;48.880;9.190;2022-12-15T03:59:25;24.30;35.70
37868;DHT22;24011;48.880;9.190;2022-12-15T04:03:21;24.10;35.50
37868;DHT22;24011;48.880;9.190;2022-12-15T04:06:57;24.10;35.70
37868;DHT22;24011;48.880;9.190;2022-12-15T04:10:14;24.10;35.80
37868;DHT22;24011;48.880;9.190;2022-12-15T04:13:39;24.10;35.90
37868;DHT22;24011;48.880;9.190;2022-12-15T04:17:08;24.10;36.00
37868;DHT22;24011;48.880;9.190;2022-12-15T04:20:25;24.10;36.00
37868;DHT22;24011;48.880;9.190;2022-12-15T04:23:50;24.00;36.20
37868;DHT22;24011;48.880;9.190;2022-12-15T04:27:08;24.00;36.20
37868;DHT22;24011;48.880;9.190;2022-12-15T04:30:51;24.10;36.40
37868;DHT22;24011;48.880;9.190;2022-12-15T04:34:15;24.00;36.40
37868;DHT22;24011;48.880;9.190;2022-12-15T04:37:44;24.10;36.50
37868;DHT22;24011;48.880;9.190;2022-12-15T04:41:14;24.00;36.60
37868;DHT22;24011;48.880;9.190;2022-12-15T04:44:44;24.00;36.60
37868;DHT22;24011;48.880;9.190;2022-12-15T04:48:14;24.00;36.70
37868;DHT22;24011;48.880;9.190;2022-12-15T04:51:44;24.00;36.80
37868;DHT22;24011;48.880;9.190;2022-12-15T04:55:08;24.00;36.90
37868;DHT22;24011;48.880;9.190;2022-12-15T04:58:45;23.90;36.90
37868;DHT22;24011;48.880;9.190;2022-12-15T05:02:14;23.90;36.90
37868;DHT22;24011;48.880;9.190;2022-12-15T05:05:45;23.90;37.00
37868;DHT22;24011;48.880;9.190;2022-12-15T05:09:15;23.90;37.10
37868;DHT22;24011;48.880;9.190;2022-12-15T05:12:51;23.90;37.10
37868;DHT22;24011;48.880;9.190;2022-12-15T05:16:21;23.90;37.20
37868;DHT22;24011;48.880;9.190;2022-12-15T05:19:51;23.90;37.20
37868;DHT22;24011;48.880;9.190;2022-12-15T05:23:15;23.90;37.30
37868;DHT22;24011;48.880;9.190;2022-12-15T05:26:39;23.90;37.30
37868;DHT22;24011;48.880;9.190;2022-12-15T05:30:09;23.90;37.30
37868;DHT22;24011;48.880;9.190;2022-12-15T05:33:28;23.90;37.30
37868;DHT22;24011;48.880;9.190;2022-12-15T05:36:07;23.90;37.40
37868;DHT22;24011;48.880;9.190;2022-12-15T05:38:48;23.90;37.40
37868;DHT22;24011;48.880;9.190;2022-12-15T05:41:26;23.80;37.40
37868;DHT22;24011;48.880;9.190;2022-12-15T05:44:04;23.80;37.50
37868;DHT22;24011;48.880;9.190;2022-12-15T05:46:43;23.80;37.60
37868;DHT22;24011;48.880;9.190;2022-12-15T05:49:30;23.80;37.60
37868;DHT22;24011;48.880;9.190;2022-12-15T05:52:23;23.80;37.60
37868;DHT22;24011;48.880;9.190;2022-12-15T05:55:05;23.80;37.70
37868;DHT22;24011;48.880;9.190;2022-12-15T05:57:43;23.80;38.30
37868;DHT22;24011;48.880;9.190;2022-12-15T06:00:27;23.80;37.70
37868;DHT22;24011;48.880;9.190;2022-12-15T06:03:28;23.80;37.80
37868;DHT22;24011;48.880;9.190;2022-12-15T06:07:04;23.80;37.90
37868;DHT22;24011;48.880;9.190;2022-12-15T06:10:19;23.80;37.80
37868;DHT22;24011;48.880;9.190;2022-12-15T06:13:03;23.90;37.80
37868;DHT22;24011;48.880;9.190;2022-12-15T06:15:55;23.80;37.80
37868;DHT22;24011;48.880;9.190;2022-12-15T06:18:34;23.90;37.80
37868;DHT22;24011;48.880;9.190;2022-12-15T06:21:27;23.90;37.80
37868;DHT22;24011;48.880;9.190;2022-12-15T06:24:40;23.90;37.80
37868;DHT22;24011;48.880;9.190;2022-12-15T06:28:15;23.90;37.80
37868;DHT22;24011;48.880;9.190;2022-12-15T06:31:45;23.90;37.90
37868;DHT22;24011;48.880;9.190;2022-12-15T06:35:09;23.90;37.90
37868;DHT22;24011;48.880;9.190;2022-12-15T06:38:03;23.90;37.90
37868;DHT22;24011;48.880;9.190;2022-12-15T06:41:22;23.90;37.90
37868;DHT22;24011;48.880;9.190;2022-12-15T06:44:30;23.90;38.00
37868;DHT22;24011;48.880;9.190;2022-12-15T06:47:42;23.90;38.00
37868;DHT22;24011;48.880;9.190;2022-12-15T06:51:03;23.90;38.00
37868;DHT22;24011;48.880;9.190;2022-12-15T06:54:16;23.90;38.00
37868;DHT22;24011;48.880;9.190;2022-12-15T06:57:40;23.80;38.00
37868;DHT22;24011;48.880;9.190;2022-12-15T07:00:58;23.90;38.10
37868;DHT22;24011;48.880;9.190;2022-12-15T07:04:00;23.90;38.10
37868;DHT22;24011;48.880;9.190;2022-12-15T07:06:43;23.90;38.30
37868;DHT22;24011;48.880;9.190;2022-12-15T07:09:29;23.90;38.20
37868;DHT22;24011;48.880;9.190;2022-12-15T07:12:21;23.80;38.20
37868;DHT22;24011;48.880;9.190;2022-12-15T07:15:16;23.80;38.20
37868;DHT22;24011;48.880;9.190;2022-12-15T07:17:59;23.80;38.40
37868;DHT22;24011;48.880;9.190;2022-12-15T07:20:40;23.80;38.40
37868;DHT22;24011;48.880;9.190;2022-12-15T07:23:29;23.90;38.40
37868;DHT22;24011;48.880;9.190;2022-12-15T07:26:34;23.90;38.30
37868;DHT22;24011;48.880;9.190;2022-12-15T07:29:23;23.90;38.20
37868;DHT22;24011;48.880;9.190;2022-12-15T07:32:24;23.90;38.30
37868;DHT22;24011;48.880;9.190;2022-12-15T07:35:11;24.00;38.20
37868;DHT22;24011;48.880;9.190;2022-12-15T07:37:57;24.00;38.20
37868;DHT22;24011;48.880;9.190;2022-12-15T07:40:46;23.90;38.20
37868;DHT22;24011;48.880;9.190;2022-12-15T07:43:49;24.00;38.90
37868;DHT22;24011;48.880;9.190;2022-12-15T07:46:43;24.00;38.30
37868;DHT22;24011;48.880;9.190;2022-12-15T07:49:27;24.00;38.20
37868;DHT22;24011;48.880;9.190;2022-12-15T07:52:19;24.00;38.30
37868;DHT22;24011;48.880;9.190;2022-12-15T07:55:15;24.00;38.30
37868;DHT22;24011;48.880;9.190;2022-12-15T07:58:27;24.00;38.30
37868;DHT22;24011;48.880;9.190;2022-12-15T08:01:15;24.00;38.20
37868;DHT22;24011;48.880;9.190;2022-12-15T08:04:02;24.00;38.30
37868;DHT22;24011;48.880;9.190;2022-12-15T08:07:03;24.00;38.40
37868;DHT22;24011;48.880;9.190;2022-12-15T08:09:52;24.00;38.40
37868;DHT22;24011;48.880;9.190;2022-12-15T08:12:39;24.10;38.50
37868;DHT22;24011;48.880;9.190;2022-12-15T08:16:01;24.10;38.40
37868;DHT22;24011;48.880;9.190;2022-12-15T08:19:31;24.10;38.50
37868;DHT22;24011;48.880;9.190;2022-12-15T08:31:31;24.10;38.30
37868;DHT22;24011;48.880;9.190;2022-12-15T08:34:17;24.10;38.30
37868;DHT22;24011;48.880;9.190;2022-12-15T08:36:46;24.10;38.20
37868;DHT22;24011;48.880;9.190;2022-12-15T08:39:14;24.20;38.20
37868;DHT22;24011;48.880;9.190;2022-12-15T08:41:42;24.20;38.10
37868;DHT22;24011;48.880;9.190;2022-12-15T08:44:10;24.20;38.10
37868;DHT22;24011;48.880;9.190;2022-12-15T08:46:42;24.30;38.70
37868;DHT22;24011;48.880;9.190;2022-12-15T08:49:10;24.20;38.00
37868;DHT22;24011;48.880;9.190;2022-12-15T08:51:49;24.20;38.00
37868;DHT22;24011;48.880;9.190;2022-12-15T08:54:19;24.20;38.00
37868;DHT22;24011;48.880;9.190;2022-12-15T08:56:47;24.30;38.00
37868;DHT22;24011;48.880;9.190;2022-12-15T08:59:16;24.30;38.00
37868;DHT22;24011;48.880;9.190;2022-12-15T09:01:46;24.30;38.00
37868;DHT22;24011;48.880;9.190;2022-12-15T09:13:16;24.30;38.10
37868;DHT22;24011;48.880;9.190;2022-12-15T09:16:53;24.30;38.00
37868;DHT22;24011;48.880;9.190;2022-12-15T09:19:53;24.30;38.60
37868;DHT22;24011;48.880;9.190;2022-12-15T09:23:22;24.30;37.90
37868;DHT22;24011;48.880;9.190;2022-12-15T09:26:32;24.30;38.00
37868;DHT22;24011;48.880;9.190;2022-12-15T09:30:28;24.30;37.90
37868;DHT22;24011;48.880;9.190;2022-12-15T09:33:10;24.40;38.00
37868;DHT22;24011;48.880;9.190;2022-12-15T09:35:38;24.40;37.90
37868;DHT22;24011;48.880;9.190;2022-12-15T09:38:08;24.30;37.90
37868;DHT22;24011;48.880;9.190;2022-12-15T09:40:36;24.40;37.90
37868;DHT22;24011;48.880;9.190;2022-12-15T09:43:04;24.40;37.90
37868;DHT22;24011;48.880;9.190;2022-12-15T09:45:59;24.40;37.90
37868;DHT22;24011;48.880;9.190;2022-12-15T09:48:36;24.40;37.90
37868;DHT22;24011;48.880;9.190;2022-12-15T09:51:09;24.40;37.80
37868;DHT22;24011;48.880;9.190;2022-12-15T09:53:39;24.40;37.80
37868;DHT22;24011;48.880;9.190;2022-12-15T09:56:31;24.40;37.80
37868;DHT22;24011;48.880;9.190;2022-12-15T09:59:07;24.40;37.80
37868;DHT22;24011;48.880;9.190;2022-12-15T10:01:54;24.40;37.80
37868;DHT22;24011;48.880;9.190;2022-12-15T11:28:38;24.70;37.00
37868;DHT22;24011;48.880;9.190;2022-12-15T12:24:25;24.70;37.80
37868;DHT22;24011;48.880;9.190;2022-12-15T14:04:26;25.30;35.70
37868;DHT22;24011;48.880;9.190;2022-12-15T14:07:14;25.30;36.10
37868;DHT22;24011;48.880;9.190;2022-12-15T14:10:15;25.30;36.20
37868;DHT22;24011;48.880;9.190;2022-12-15T14:13:05;25.30;36.20
37868;DHT22;24011;48.880;9.190;2022-12-15T14:15:57;25.40;36.20
37868;DHT22;24011;48.880;9.190;2022-12-15T14:18:45;25.30;36.10
37868;DHT22;24011;48.880;9.190;2022-12-15T14:21:58;25.40;36.20
37868;DHT22;24011;48.880;9.190;2022-12-15T14:25:17;25.40;36.20
37868;DHT22;24011;48.880;9.190;2022-12-15T14:28:02;25.40;36.20
37868;DHT22;24011;48.880;9.190;2022-12-15T14:30:48;25.40;36.20
37868;DHT22;24011;48.880;9.190;2022-12-15T14:34:02;25.40;36.20
37868;DHT22;24011;48.880;9.190;2022-12-15T14:37:04;25.40;36.10
37868;DHT22;24011;48.880;9.190;2022-12-15T14:40:04;25.40;36.10
37868;DHT22;24011;48.880;9.190;2022-12-15T14:43:16;25.40;36.20
37868;DHT22;24011;48.880;9.190;2022-12-15T14:46:16;25.40;36.10
37868;DHT22;24011;48.880;9.190;2022-12-15T14:49:12;25.40;36.10
37868;DHT22;24011;48.880;9.190;2022-12-15T14:52:28;25.50;36.10
37868;DHT22;24011;48.880;9.190;2022-12-15T14:55:38;25.40;35.90
37868;DHT22;24011;48.880;9.190;2022-12-15T14:58:44;25.50;36.70
37868;DHT22;24011;48.880;9.190;2022-12-15T15:01:57;25.40;36.10
37868;DHT22;24011;48.880;9.190;2022-12-15T15:05:01;25.40;36.10
37868;DHT22;24011;48.880;9.190;2022-12-15T15:08:20;25.40;36.10
37868;DHT22;24011;48.880;9.190;2022-12-15T15:11:38;25.30;36.10
37868;DHT22;24011;48.880;9.190;2022-12-15T15:14:38;25.40;36.20
37868;DHT22;24011;48.880;9.190;2022-12-15T15:17:37;25.40;36.00
37868;DHT22;24011;48.880;9.190;2022-12-15T15:20:29;25.40;36.00
37868;DHT22;24011;48.880;9.190;2022-12-15T15:23:17;25.40;36.00
37868;DHT22;24011;48.880;9.190;2022-12-15T15:26:14;25.40;36.10
37868;DHT22;24011;48.880;9.190;2022-12-15T15:32:10;25.30;36.20
37868;DHT22;24011;48.880;9.190;2022-12-15T15:34:57;25.30;36.10
37868;DHT22;24011;48.880;9.190;2022-12-15T15:37:42;25.30;36.10
37868;DHT22;24011;48.880;9.190;2022-12-15T15:40:41;25.30;36.00
37868;DHT22;24011;48.880;9.190;2022-12-15T15:43:24;25.20;36.00
37868;DHT22;24011;48.880;9.190;2022-12-15T15:46:13;25.20;36.00
37868;DHT22;24011;48.880;9.190;2022-12-15T15:48:57;25.20;36.00
37868;DHT22;24011;48.880;9.190;2022-12-15T15:51:44;25.10;36.00
37868;DHT22;24011;48.880;9.190;2022-12-15T15:54:32;25.10;36.10
37868;DHT22;24011;48.880;9.190;2022-12-15T15:57:22;25.00;36.10
37868;DHT22;24011;48.880;9.190;2022-12-15T16:00:17;25.00;36.20
37868;DHT22;24011;48.880;9.190;2022-12-15T16:03:05;25.00;36.20
37868;DHT22;24011;48.880;9.190;2022-12-15T16:05:50;25.00;36.10
37868;DHT22;24011;48.880;9.190;2022-12-15T16:08:39;25.00;36.20
37868;DHT22;24011;48.880;9.190;2022-12-15T16:11:28;25.00;36.20
37868;DHT22;24011;48.880;9.190;2022-12-15T16:14:41;25.00;36.20
37868;DHT22;24011;48.880;9.190;2022-12-15T16:17:45;24.90;36.20
37868;DHT22;24011;48.880;9.190;2022-12-15T16:20:50;24.90;36.20
37868;DHT22;24011;48.880;9.190;2022-12-15T16:24:06;24.80;36.20
37868;DHT22;24011;48.880;9.190;2022-12-15T16:27:03;24.80;36.30
37868;DHT22;24011;48.880;9.190;2022-12-15T16:30:19;24.80;36.40
37868;DHT22;24011;48.880;9.190;2022-12-15T16:33:27;24.70;36.50
37868;DHT22;24011;48.880;9.190;2022-12-15T16:36:25;24.70;36.50
37868;DHT22;24011;48.880;9.190;2022-12-15T16:39:39;24.70;36.50
37868;DHT22;24011;48.880;9.190;2022-12-15T16:43:11;24.70;36.50
37868;DHT22;24011;48.880;9.190;2022-12-15T16:46:23;24.70;36.50
37868;DHT22;24011;48.880;9.190;2022-12-15T16:50:28;24.60;36.50
37868;DHT22;24011;48.880;9.190;2022-12-15T17:06:19;24.50;36.60
37868;DHT22;24011;48.880;9.190;2022-12-15T17:13:28;24.50;36.70
37868;DHT22;24011;48.880;9.190;2022-12-15T17:16:59;24.50;36.60
37868;DHT22;24011;48.880;9.190;2022-12-15T17:20:55;24.50;36.70
37868;DHT22;24011;48.880;9.190;2022-12-15T17:24:24;24.40;36.70
37868;DHT22;24011;48.880;9.190;2022-12-15T17:27:48;24.40;36.80
37868;DHT22;24011;48.880;9.190;2022-12-15T17:30:52;24.40;36.80
37868;DHT22;24011;48.880;9.190;2022-12-15T17:33:44;24.40;36.80
37868;DHT22;24011;48.880;9.190;2022-12-15T17:36:31;24.40;36.90
37868;DHT22;24011;48.880;9.190;2022-12-15T17:39:14;24.40;36.80
37868;DHT22;24011;48.880;9.190;2022-12-15T17:42:50;24.40;36.90
37868;DHT22;24011;48.880;9.190;2022-12-15T17:46:09;24.40;36.90
37868;DHT22;24011;48.880;9.190;2022-12-15T17:49:54;24.40;36.90
37868;DHT22;24011;48.880;9.190;2022-12-15T17:54:00;24.30;36.80
37868;DHT22;24011;48.880;9.190;2022-12-15T17:57:25;24.30;36.90
37868;DHT22;24011;48.880;9.190;2022-12-15T18:04:19;24.40;36.60
37868;DHT22;24011;48.880;9.190;2022-12-15T18:07:48;24.30;36.60
37868;DHT22;24011;48.880;9.190;2022-12-15T18:12:00;24.20;36.50
37868;DHT22;24011;48.880;9.190;2022-12-15T18:23:56;24.20;36.60
37868;DHT22;24011;48.880;9.190;2022-12-15T18:27:42;24.20;36.60
37868;DHT22;24011;48.880;9.190;2022-12-15T18:32:09;24.20;36.50
37868;DHT22;24011;48.880;9.190;2022-12-15T18:35:54;24.20;36.50
37868;DHT22;24011;48.880;9.190;2022-12-15T18:40:00;24.20;36.60
37868;DHT22;24011;48.880;9.190;2022-12-15T18:43:36;24.20;36.60
37868;DHT22;24011;48.880;9.190;2022-12-15T18:47:12;24.10;36.50
37868;DHT22;24011;48.880;9.190;2022-12-15T18:50:30;24.10;36.60
37868;DHT22;24011;48.880;9.190;2022-12-15T18:54:12;24.10;36.60
37868;DHT22;24011;48.880;9.190;2022-12-15T18:58:00;24.10;36.60
37868;DHT22;24011;48.880;9.190;2022-12-15T19:01:36;24.10;36.60
37868;DHT22;24011;48.880;9.190;2022-12-15T19:04:24;24.10;36.60
37868;DHT22;24011;48.880;9.190;2022-12-15T19:08:01;24.10;36.50
37868;DHT22;24011;48.880;9.190;2022-12-15T19:10:55;24.20;36.50
37868;DHT22;24011;48.880;9.190;2022-12-15T19:14:43;24.30;36.50
37868;DHT22;24011;48.880;9.190;2022-12-15T19:18:19;24.30;36.30
37868;DHT22;24011;48.880;9.190;2022-12-15T19:22:00;24.40;36.20
37868;DHT22;24011;48.880;9.190;2022-12-15T19:25:19;24.40;36.10
37868;DHT22;24011;48.880;9.190;2022-12-15T19:29:12;24.40;36.00
37868;DHT22;24011;48.880;9.190;2022-12-15T19:32:49;24.40;36.10
37868;DHT22;24011;48.880;9.190;2022-12-15T19:36:43;24.40;36.10
37868;DHT22;24011;48.880;9.190;2022-12-15T19:40:19;24.40;36.10
37868;DHT22;24011;48.880;9.190;2022-12-15T19:43:45;24.50;36.10
37868;DHT22;24011;48.880;9.190;2022-12-15T19:47:01;24.40;36.10
37868;DHT22;24011;48.880;9.190;2022-12-15T19:54:46;24.40;36.00
37868;DHT22;24011;48.880;9.190;2022-12-15T19:59:01;24.50;36.00
37868;DHT22;24011;48.880;9.190;2022-12-15T20:22:41;24.50;36.00
37868;DHT22;24011;48.880;9.190;2022-12-15T20:26:09;24.50;36.00
37868;DHT22;24011;48.880;9.190;2022-12-15T20:29:24;24.50;36.10
37868;DHT22;24011;48.880;9.190;2022-12-15T20:32:53;24.50;36.10
37868;DHT22;24011;48.880;9.190;2022-12-15T20:36:20;24.50;36.20
37868;DHT22;24011;48.880;9.190;2022-12-15T20:40:18;24.40;36.20
37868;DHT22;24011;48.880;9.190;2022-12-15T20:43:35;24.40;36.20
37868;DHT22;24011;48.880;9.190;2022-12-15T20:46:53;24.40;36.30
37868;DHT22;24011;48.880;9.190;2022-12-15T20:50:31;24.40;36.30
37868;DHT22;24011;48.880;9.190;2022-12-15T20:53:59;24.40;36.30
37868;DHT22;24011;48.880;9.190;2022-12-15T20:57:41;24.40;36.40
37868;DHT22;24011;48.880;9.190;2022-12-15T21:01:02;24.40;36.30
37868;DHT22;24011;48.880;9.190;2022-12-15T21:04:29;24.40;36.30
37868;DHT22;24011;48.880;9.190;2022-12-15T21:07:38;24.40;36.30
37868;DHT22;24011;48.880;9.190;2022-12-15T21:11:09;24.40;36.30
37868;DHT22;24011;48.880;9.190;2022-12-15T21:14:35;24.40;36.20
37868;DHT22;24011;48.880;9.190;2022-12-15T21:18:20;24.40;36.30
37868;DHT22;24011;48.880;9.190;2022-12-15T21:21:59;24.50;36.20
37868;DHT22;24011;48.880;9.190;2022-12-15T21:25:26;24.50;36.20
37868;DHT22;24011;48.880;9.190;2022-12-15T21:28:29;24.50;36.10
37868;DHT22;24011;48.880;9.190;2022-12-15T21:31:44;24.50;36.10
37868;DHT22;24011;48.880;9.190;2022-12-15T23:29:01;24.40;36.60
37868;DHT22;24011;48.880;9.190;2022-12-15T23:32:11;24.40;36.70
37868;DHT22;24011;48.880;9.190;2022-12-15T23:35:39;24.40;36.60
37868;DHT22;24011;48.880;9.190;2022-12-15T23:38:35;24.30;36.60
37868;DHT22;24011;48.880;9.190;2022-12-15T23:42:05;24.40;36.60
37868;DHT22;24011;48.880;9.190;2022-12-15T23:45:31;24.40;36.60
37868;DHT22;24011;48.880;9.190;2022-12-15T23:48:51;24.40;36.60
37868;DHT22;24011;48.880;9.190;2022-12-15T23:52:11;24.40;36.60
37868;DHT22;24011;48.880;9.190;2022-12-15T23:55:35;24.30;36.60
37868;DHT22;24011;48.880;9.190;2022-12-15T23:58:52;24.40;36.60
